« Back
NWS Peachtree City, Ga » Text Product » CSG Terminal Aerodrome Forecast


Printer-friendly Version
Current Version              Previous Versions:   1  2  3  4  5  6  7  8  9  

Terminal Aerodrome Forecast

695
FTUS42 KFFC 302334
TAFCSG
TAF
KCSG 302334Z 0100/0124 29004KT P6SM FEW100
     FM010600 22004KT 5SM BR SCT008 BKN250
     FM011400 27005KT P6SM SCT040
     FM011800 28007KT P6SM FEW050
     FM012300 29006KT P6SM FEW250=



USA.gov is the U.S. government's official web portal to all federal, state and local government web resources and services.